Time;durP1;ratioP1;P1;durP2;ratioP2;P2;SDS_P1;SDS_P2;PMS_P1;PMS_P2;Temp;Humidity;BMP_temperature;BMP_pressure;BME280_temperature;BME280_humidity;BME280_pressure;Samples;Min_cycle;Max_cycle;Signal;HPM_P1;HPM_P2
2023/03/25 00:00:16;;;;;;;3.58;0.90;;;;;;;;;;4920061;29;20174;-80
2023/03/25 00:02:46;;;;;;;4.03;1.30;;;;;;;;;;4920226;29;20195;-81
2023/03/25 00:05:13;;;;;;;1.55;0.90;;;;;;;;;;4920092;29;20182;-80
2023/03/25 00:07:40;;;;;;;2.78;1.00;;;;;;;;;;4919546;29;20222;-80
2023/03/25 00:10:06;;;;;;;2.25;1.02;;;;;;;;;;4920021;29;20183;-81
2023/03/25 00:12:32;;;;;;;5.95;1.63;;;;;;;;;;4919867;29;20541;-80
2023/03/25 00:14:58;;;;;;;2.47;0.93;;;;;;;;;;4919782;29;20285;-80
2023/03/25 00:17:27;;;;;;;3.50;1.25;;;;;;;;;;4919740;29;20234;-81
2023/03/25 00:19:54;;;;;;;2.75;0.95;;;;;;;;;;4919724;29;20193;-80
2023/03/25 00:22:20;;;;;;;2.65;1.20;;;;;;;;;;4919279;29;20217;-81
2023/03/25 00:24:47;;;;;;;2.78;1.08;;;;;;;;;;4919292;29;20593;-81
2023/03/25 00:27:13;;;;;;;3.40;1.10;;;;;;;;;;4919660;29;20185;-80
2023/03/25 00:29:40;;;;;;;3.15;1.45;;;;;;;;;;4919598;29;20225;-80
2023/03/25 00:32:06;;;;;;;3.60;0.90;;;;;;;;;;4919552;29;20178;-80
2023/03/25 00:34:34;;;;;;;5.37;1.47;;;;;;;;;;4919799;29;20209;-81
2023/03/25 00:37:01;;;;;;;6.72;1.17;;;;;;;;;;4919347;29;20430;-81
2023/03/25 00:39:27;;;;;;;6.97;1.20;;;;;;;;;;4918930;29;20182;-81
2023/03/25 00:41:56;;;;;;;1.83;0.80;;;;;;;;;;4918728;29;20186;-81
2023/03/25 00:44:22;;;;;;;4.10;1.50;;;;;;;;;;4919470;29;20225;-82
2023/03/25 00:46:48;;;;;;;6.75;1.17;;;;;;;;;;4919551;29;20189;-81
2023/03/25 00:49:14;;;;;;;2.88;1.00;;;;;;;;;;4919058;29;20232;-81
2023/03/25 00:51:40;;;;;;;2.75;0.88;;;;;;;;;;4919116;29;20186;-81
2023/03/25 00:54:06;;;;;;;1.67;0.80;;;;;;;;;;4919732;29;20203;-81
2023/03/25 00:56:32;;;;;;;2.55;1.00;;;;;;;;;;4921292;29;20434;-80
2023/03/25 00:58:58;;;;;;;1.20;0.90;;;;;;;;;;4923430;29;20246;-81
2023/03/25 01:01:28;;;;;;;4.77;1.13;;;;;;;;;;4922914;29;20442;-81
2023/03/25 01:03:58;;;;;;;1.60;0.60;;;;;;;;;;4922828;29;20401;-81
2023/03/25 01:06:28;;;;;;;2.28;0.80;;;;;;;;;;4922295;29;20197;-81
2023/03/25 01:08:58;;;;;;;2.33;1.08;;;;;;;;;;4922951;29;20279;-80
2023/03/25 01:11:26;;;;;;;3.20;0.80;;;;;;;;;;4923209;29;20261;-81
2023/03/25 01:13:53;;;;;;;2.55;0.80;;;;;;;;;;4922757;29;20231;-81
2023/03/25 01:16:19;;;;;;;2.08;0.80;;;;;;;;;;4922254;29;20182;-81
2023/03/25 01:18:45;;;;;;;2.70;0.90;;;;;;;;;;4922058;29;20238;-81
2023/03/25 01:21:11;;;;;;;1.52;0.93;;;;;;;;;;4922508;29;20178;-81
2023/03/25 01:23:40;;;;;;;6.15;1.10;;;;;;;;;;4922411;29;20178;-81
2023/03/25 01:26:06;;;;;;;3.58;1.00;;;;;;;;;;4922701;29;20178;-81
2023/03/25 01:28:32;;;;;;;2.95;0.75;;;;;;;;;;4922869;29;20262;-81
2023/03/25 01:31:01;;;;;;;1.97;1.00;;;;;;;;;;4922284;29;20186;-81
2023/03/25 01:33:27;;;;;;;1.33;0.68;;;;;;;;;;4922588;29;20406;-81
2023/03/25 01:35:53;;;;;;;2.90;1.52;;;;;;;;;;4922590;29;20179;-81
2023/03/25 01:38:20;;;;;;;1.07;0.77;;;;;;;;;;4922363;29;20205;-81
2023/03/25 01:40:46;;;;;;;1.70;0.90;;;;;;;;;;4922803;29;20769;-81
2023/03/25 01:43:14;;;;;;;1.40;0.90;;;;;;;;;;4922900;29;20181;-81
2023/03/25 01:45:40;;;;;;;4.00;1.00;;;;;;;;;;4922093;29;20717;-81
2023/03/25 01:48:09;;;;;;;5.35;0.95;;;;;;;;;;4922415;29;20225;-81
2023/03/25 01:50:37;;;;;;;3.30;0.90;;;;;;;;;;4922064;29;20179;-81
2023/03/25 01:53:04;;;;;;;2.70;0.90;;;;;;;;;;4921766;29;20299;-81
2023/03/25 01:55:33;;;;;;;2.58;0.70;;;;;;;;;;4921501;29;20681;-81
2023/03/25 01:58:01;;;;;;;1.63;0.82;;;;;;;;;;4921491;29;20643;-82
2023/03/25 02:00:27;;;;;;;4.30;0.98;;;;;;;;;;4921900;29;20178;-82
2023/03/25 02:02:57;;;;;;;1.20;1.00;;;;;;;;;;4921128;29;20585;-81
2023/03/25 02:05:27;;;;;;;7.15;1.10;;;;;;;;;;4921804;29;20190;-81
2023/03/25 02:07:56;;;;;;;1.80;1.05;;;;;;;;;;4920317;29;20273;-81
2023/03/25 02:10:22;;;;;;;3.00;1.10;;;;;;;;;;4921828;29;20175;-81
2023/03/25 02:12:48;;;;;;;2.05;1.05;;;;;;;;;;4920890;29;20314;-82
2023/03/25 02:15:16;;;;;;;3.08;1.00;;;;;;;;;;4920911;29;20182;-82
2023/03/25 02:17:51;;;;;;;2.35;0.95;;;;;;;;;;4920658;29;20237;-83
2023/03/25 02:20:35;;;;;;;2.35;1.20;;;;;;;;;;4921300;29;20185;-82
2023/03/25 02:23:20;;;;;;;2.65;0.85;;;;;;;;;;4921021;29;20178;-82
2023/03/25 02:26:04;;;;;;;3.28;0.82;;;;;;;;;;4921081;29;20182;-82
2023/03/25 02:28:48;;;;;;;1.42;1.00;;;;;;;;;;4921515;29;20205;-82
2023/03/25 02:31:14;;;;;;;2.15;0.95;;;;;;;;;;4921371;29;20183;-82
2023/03/25 02:33:49;;;;;;;1.35;1.08;;;;;;;;;;4920918;29;20282;-81
2023/03/25 02:36:15;;;;;;;2.22;1.35;;;;;;;;;;4920955;29;20264;-81
2023/03/25 02:38:52;;;;;;;1.57;1.10;;;;;;;;;;4921134;29;20225;-81
2023/03/25 02:41:22;;;;;;;2.08;1.10;;;;;;;;;;4921468;29;20406;-81
2023/03/25 02:43:54;;;;;;;4.00;1.20;;;;;;;;;;4921278;29;20591;-81
2023/03/25 02:46:22;;;;;;;2.50;1.20;;;;;;;;;;4921164;29;20531;-81
2023/03/25 02:49:03;;;;;;;5.13;1.67;;;;;;;;;;4920773;29;20694;-81
2023/03/25 02:51:31;;;;;;;3.38;1.55;;;;;;;;;;4921017;29;20181;-81
2023/03/25 02:53:59;;;;;;;2.70;1.42;;;;;;;;;;4920644;29;20719;-81
2023/03/25 02:56:28;;;;;;;5.10;1.30;;;;;;;;;;4920993;29;20186;-81
2023/03/25 02:58:54;;;;;;;2.22;1.10;;;;;;;;;;4920357;29;20245;-81
2023/03/25 03:01:25;;;;;;;2.85;1.20;;;;;;;;;;4920871;29;20210;-81
2023/03/25 03:03:51;;;;;;;3.95;1.20;;;;;;;;;;4921667;29;20186;-81
2023/03/25 03:06:17;;;;;;;4.53;1.30;;;;;;;;;;4921476;29;20189;-81
2023/03/25 03:08:54;;;;;;;1.88;0.98;;;;;;;;;;4920569;29;20210;-81
2023/03/25 03:11:38;;;;;;;7.07;1.30;;;;;;;;;;4920822;29;20178;-81
2023/03/25 03:14:22;;;;;;;2.50;1.13;;;;;;;;;;4920778;29;20187;-81
2023/03/25 03:16:57;;;;;;;4.50;1.50;;;;;;;;;;4920281;29;20540;-80
2023/03/25 03:19:23;;;;;;;3.13;1.02;;;;;;;;;;4920233;29;20189;-80
2023/03/25 03:21:50;;;;;;;3.57;1.20;;;;;;;;;;4921117;29;20722;-80
2023/03/25 03:24:22;;;;;;;4.88;1.42;;;;;;;;;;4921177;29;20426;-80
2023/03/25 03:26:54;;;;;;;2.20;1.10;;;;;;;;;;4920573;29;20205;-81
2023/03/25 03:29:25;;;;;;;1.65;0.95;;;;;;;;;;4920566;29;20210;-81
2023/03/25 03:31:51;;;;;;;3.70;1.00;;;;;;;;;;4920438;29;20174;-80
2023/03/25 03:34:42;;;;;;;2.87;1.50;;;;;;;;;;4920443;29;20179;-81
2023/03/25 03:37:09;;;;;;;5.97;1.10;;;;;;;;;;4920198;29;20808;-80
2023/03/25 03:39:36;;;;;;;1.67;1.25;;;;;;;;;;4920219;29;20186;-80
2023/03/25 03:42:06;;;;;;;4.50;1.58;;;;;;;;;;4920105;29;20185;-80
2023/03/25 03:44:34;;;;;;;3.30;1.10;;;;;;;;;;4920803;29;20182;-80
2023/03/25 03:47:06;;;;;;;5.18;1.40;;;;;;;;;;4920172;29;20179;-80
2023/03/25 03:49:38;;;;;;;5.53;1.67;;;;;;;;;;4920764;29;20213;-80
2023/03/25 03:52:09;;;;;;;2.25;1.30;;;;;;;;;;4920298;29;20162;-80
2023/03/25 03:54:41;;;;;;;3.95;1.88;;;;;;;;;;4920494;29;20182;-80
2023/03/25 03:57:11;;;;;;;5.25;1.60;;;;;;;;;;4919855;29;20181;-80
2023/03/25 03:59:56;;;;;;;1.60;1.00;;;;;;;;;;4920358;29;20189;-80
2023/03/25 04:02:31;;;;;;;2.17;1.15;;;;;;;;;;4920303;29;20188;-80
2023/03/25 04:04:59;;;;;;;3.20;1.05;;;;;;;;;;4919837;29;20550;-80
2023/03/25 04:07:37;;;;;;;2.45;1.00;;;;;;;;;;4920162;29;20269;-80
2023/03/25 04:10:03;;;;;;;3.53;1.20;;;;;;;;;;4919777;29;20253;-79
2023/03/25 04:12:32;;;;;;;10.87;1.30;;;;;;;;;;4920442;29;20174;-80
2023/03/25 04:15:02;;;;;;;3.83;1.10;;;;;;;;;;4919746;29;20397;-80
2023/03/25 04:17:34;;;;;;;2.58;0.90;;;;;;;;;;4920019;29;20242;-80
2023/03/25 04:20:05;;;;;;;6.03;1.27;;;;;;;;;;4919876;29;20189;-80
2023/03/25 04:22:31;;;;;;;7.18;1.50;;;;;;;;;;4919761;29;20170;-80
2023/03/25 04:24:59;;;;;;;14.50;1.00;;;;;;;;;;4919592;29;20182;-80
2023/03/25 04:27:28;;;;;;;3.53;1.38;;;;;;;;;;4920156;29;20415;-80
2023/03/25 04:29:56;;;;;;;6.63;1.73;;;;;;;;;;4919551;29;20186;-80
2023/03/25 04:32:22;;;;;;;8.50;1.60;;;;;;;;;;4919470;29;20635;-80
2023/03/25 04:34:48;;;;;;;3.25;1.55;;;;;;;;;;4919558;29;20202;-80
2023/03/25 04:37:14;;;;;;;2.70;0.90;;;;;;;;;;4920246;29;20186;-80
2023/03/25 04:39:40;;;;;;;1.42;0.90;;;;;;;;;;4919855;29;20446;-80
2023/03/25 04:42:07;;;;;;;4.28;1.15;;;;;;;;;;4919504;29;20181;-80
2023/03/25 04:44:37;;;;;;;2.45;0.75;;;;;;;;;;4919962;29;20249;-80
2023/03/25 04:47:05;;;;;;;3.33;1.63;;;;;;;;;;4920078;29;20182;-80
2023/03/25 04:49:31;;;;;;;1.42;1.00;;;;;;;;;;4920055;29;20205;-80
2023/03/25 04:51:58;;;;;;;3.35;1.90;;;;;;;;;;4919885;29;20178;-79
2023/03/25 04:54:24;;;;;;;3.45;1.00;;;;;;;;;;4920540;29;20186;-79
2023/03/25 04:56:51;;;;;;;3.17;0.93;;;;;;;;;;4919961;29;20181;-80
2023/03/25 04:59:18;;;;;;;4.75;1.70;;;;;;;;;;4920021;29;20285;-80
2023/03/25 05:01:45;;;;;;;4.70;2.08;;;;;;;;;;4919431;29;20202;-80
2023/03/25 05:04:12;;;;;;;2.88;0.70;;;;;;;;;;4919576;29;20185;-80
2023/03/25 05:06:40;;;;;;;2.85;0.93;;;;;;;;;;4919923;29;20642;-80
2023/03/25 05:09:08;;;;;;;3.92;0.90;;;;;;;;;;4919410;29;20217;-80
2023/03/25 05:11:35;;;;;;;3.40;1.35;;;;;;;;;;4919409;29;20182;-80
2023/03/25 05:14:01;;;;;;;5.10;1.27;;;;;;;;;;4903301;29;20556;-80
2023/03/25 05:16:28;;;;;;;4.15;1.05;;;;;;;;;;4919568;29;20517;-80
2023/03/25 05:18:53;;;;;;;3.38;1.25;;;;;;;;;;4919811;29;20230;-79
2023/03/25 05:21:20;;;;;;;3.30;1.07;;;;;;;;;;4919638;29;20189;-79
2023/03/25 05:23:46;;;;;;;5.63;1.35;;;;;;;;;;4920275;29;20818;-79
2023/03/25 05:26:12;;;;;;;4.05;0.88;;;;;;;;;;4919550;29;20262;-80
2023/03/25 05:28:39;;;;;;;3.83;1.40;;;;;;;;;;4903067;29;20399;-80
2023/03/25 05:31:07;;;;;;;3.78;1.15;;;;;;;;;;4919383;29;20402;-80
2023/03/25 05:33:35;;;;;;;2.47;0.90;;;;;;;;;;4919757;29;20187;-80
2023/03/25 05:36:02;;;;;;;3.30;0.90;;;;;;;;;;4919514;29;20218;-80
2023/03/25 05:38:27;;;;;;;3.08;1.27;;;;;;;;;;4919405;29;20255;-80
2023/03/25 05:40:53;;;;;;;8.00;1.40;;;;;;;;;;4919369;29;20202;-80
2023/03/25 05:43:21;;;;;;;5.03;1.20;;;;;;;;;;4922199;29;20415;-80
2023/03/25 05:45:47;;;;;;;4.63;1.27;;;;;;;;;;4922816;29;20906;-80
2023/03/25 05:48:13;;;;;;;6.78;1.52;;;;;;;;;;4905010;29;20681;-80
2023/03/25 05:50:42;;;;;;;5.05;1.63;;;;;;;;;;4903956;29;20265;-80
2023/03/25 05:53:11;;;;;;;9.45;1.58;;;;;;;;;;4903281;29;20203;-81
2023/03/25 05:55:37;;;;;;;4.63;1.48;;;;;;;;;;4903676;29;20220;-80
2023/03/25 05:58:03;;;;;;;7.80;1.42;;;;;;;;;;4903412;29;20183;-81
2023/03/25 06:00:29;;;;;;;5.30;1.50;;;;;;;;;;4903203;29;20692;-80
2023/03/25 06:02:57;;;;;;;5.75;2.05;;;;;;;;;;4902984;29;20187;-80
2023/03/25 06:05:24;;;;;;;6.47;1.90;;;;;;;;;;4903550;29;20542;-80
2023/03/25 06:07:54;;;;;;;3.65;1.23;;;;;;;;;;4903162;29;20222;-80
2023/03/25 06:10:21;;;;;;;4.30;1.30;;;;;;;;;;4903537;29;20191;-80
2023/03/25 06:12:51;;;;;;;8.95;1.58;;;;;;;;;;4903178;29;20663;-80
2023/03/25 06:15:20;;;;;;;4.90;1.35;;;;;;;;;;4903256;29;20631;-80
2023/03/25 06:17:46;;;;;;;6.55;2.03;;;;;;;;;;4903076;29;20242;-81
2023/03/25 06:20:12;;;;;;;4.83;0.93;;;;;;;;;;4903041;29;20277;-81
2023/03/25 06:22:41;;;;;;;5.03;1.80;;;;;;;;;;4914037;29;20414;-80
2023/03/25 06:25:08;;;;;;;10.90;2.00;;;;;;;;;;4913267;29;20197;-81
2023/03/25 06:27:39;;;;;;;8.52;2.03;;;;;;;;;;4921737;29;20182;-81
2023/03/25 06:30:05;;;;;;;2.72;1.40;;;;;;;;;;4921393;29;20178;-81
2023/03/25 06:32:31;;;;;;;9.95;1.48;;;;;;;;;;4921836;29;20615;-80
2023/03/25 06:34:57;;;;;;;3.10;1.00;;;;;;;;;;4921623;29;20186;-80
2023/03/25 06:37:25;;;;;;;6.07;1.70;;;;;;;;;;4922010;29;20898;-80
2023/03/25 06:39:55;;;;;;;4.72;1.10;;;;;;;;;;4921155;29;20418;-81
2023/03/25 06:42:21;;;;;;;3.75;1.10;;;;;;;;;;4921619;29;20193;-80
2023/03/25 06:44:47;;;;;;;3.85;1.25;;;;;;;;;;4921923;29;20179;-80
2023/03/25 06:47:13;;;;;;;5.72;1.48;;;;;;;;;;4921894;29;20187;-80
2023/03/25 06:49:39;;;;;;;10.83;1.60;;;;;;;;;;4922067;29;20206;-80
2023/03/25 06:52:05;;;;;;;3.90;1.00;;;;;;;;;;4920846;29;20418;-80
2023/03/25 06:54:31;;;;;;;8.90;2.92;;;;;;;;;;4920844;29;20402;-80
2023/03/25 06:56:57;;;;;;;5.43;1.23;;;;;;;;;;4921434;29;20703;-80
2023/03/25 06:59:24;;;;;;;7.63;1.77;;;;;;;;;;4921515;29;20444;-80
2023/03/25 07:01:50;;;;;;;3.30;2.47;;;;;;;;;;4921268;29;20178;-80
2023/03/25 07:04:16;;;;;;;6.88;1.58;;;;;;;;;;4920753;29;20190;-80
2023/03/25 07:06:41;;;;;;;7.38;1.35;;;;;;;;;;4921727;29;20178;-80
2023/03/25 07:09:07;;;;;;;1.40;1.03;;;;;;;;;;4920709;29;20209;-80
2023/03/25 07:11:33;;;;;;;7.67;1.30;;;;;;;;;;4921523;29;20804;-80
2023/03/25 07:13:59;;;;;;;5.83;1.80;;;;;;;;;;4921434;29;20403;-80
2023/03/25 07:16:26;;;;;;;6.50;1.52;;;;;;;;;;4921268;29;20837;-79
2023/03/25 07:18:53;;;;;;;3.75;1.50;;;;;;;;;;4921028;29;20269;-79
2023/03/25 07:21:19;;;;;;;4.80;1.25;;;;;;;;;;4920538;29;20187;-80
2023/03/25 07:23:45;;;;;;;4.38;1.35;;;;;;;;;;4920938;29;20186;-79
2023/03/25 07:26:15;;;;;;;3.23;1.23;;;;;;;;;;4921224;29;20178;-80
2023/03/25 07:28:41;;;;;;;4.07;1.55;;;;;;;;;;4920668;29;20473;-80
2023/03/25 07:31:11;;;;;;;8.88;1.42;;;;;;;;;;4920104;29;20186;-80
2023/03/25 07:33:37;;;;;;;7.20;1.25;;;;;;;;;;4920607;29;20193;-80
2023/03/25 07:36:04;;;;;;;2.97;1.30;;;;;;;;;;4920857;29;20542;-80
2023/03/25 07:38:30;;;;;;;3.90;1.23;;;;;;;;;;4920841;29;20182;-80
2023/03/25 07:40:56;;;;;;;3.23;1.10;;;;;;;;;;4920653;29;20186;-80
2023/03/25 07:43:22;;;;;;;5.53;1.35;;;;;;;;;;4920359;29;20421;-80
2023/03/25 07:45:48;;;;;;;3.23;1.43;;;;;;;;;;4920533;29;20182;-80
2023/03/25 07:48:15;;;;;;;10.47;1.67;;;;;;;;;;4921008;29;20562;-80
2023/03/25 07:50:41;;;;;;;3.58;1.20;;;;;;;;;;4920436;29;20407;-79
2023/03/25 07:53:07;;;;;;;2.92;1.35;;;;;;;;;;4920119;29;20217;-81
2023/03/25 07:55:33;;;;;;;2.42;1.20;;;;;;;;;;4920532;29;20193;-80
2023/03/25 07:58:00;;;;;;;1.20;0.87;;;;;;;;;;4920144;29;20190;-79
2023/03/25 08:00:26;;;;;;;5.22;1.88;;;;;;;;;;4920076;29;20414;-79
2023/03/25 08:02:53;;;;;;;6.18;1.20;;;;;;;;;;4920281;29;20185;-79
2023/03/25 08:05:21;;;;;;;7.18;2.05;;;;;;;;;;4920050;29;20248;-79
2023/03/25 08:07:51;;;;;;;5.45;1.40;;;;;;;;;;4920185;29;20178;-79
2023/03/25 08:10:18;;;;;;;5.47;2.13;;;;;;;;;;4919772;29;20537;-79
2023/03/25 08:12:44;;;;;;;7.45;1.40;;;;;;;;;;4919972;29;20186;-80
2023/03/25 08:15:10;;;;;;;3.78;1.30;;;;;;;;;;4919825;29;20177;-79
2023/03/25 08:17:37;;;;;;;4.18;1.50;;;;;;;;;;4920139;29;20253;-78
2023/03/25 08:20:04;;;;;;;4.63;1.48;;;;;;;;;;4919929;29;20196;-79
2023/03/25 08:22:31;;;;;;;6.00;1.55;;;;;;;;;;4919858;29;20189;-79
2023/03/25 08:24:57;;;;;;;8.00;1.65;;;;;;;;;;4920906;29;20166;-79
2023/03/25 08:27:23;;;;;;;4.65;1.35;;;;;;;;;;4919574;29;20174;-79
2023/03/25 08:29:56;;;;;;;7.28;1.38;;;;;;;;;;4919811;29;20224;-79
2023/03/25 08:32:22;;;;;;;8.40;1.55;;;;;;;;;;4919611;29;20290;-86
2023/03/25 08:34:48;;;;;;;9.70;1.42;;;;;;;;;;4902654;29;20647;-81
2023/03/25 08:37:14;;;;;;;2.38;1.00;;;;;;;;;;4919029;29;20229;-80
2023/03/25 08:39:43;;;;;;;4.95;1.80;;;;;;;;;;4919425;29;20178;-81
2023/03/25 08:42:10;;;;;;;7.30;1.80;;;;;;;;;;4919163;29;20242;-80
2023/03/25 08:44:36;;;;;;;6.05;2.00;;;;;;;;;;4918914;29;20229;-80
2023/03/25 08:47:02;;;;;;;8.02;1.73;;;;;;;;;;4901778;29;20277;-82
2023/03/25 08:49:28;;;;;;;2.10;1.40;;;;;;;;;;4919073;29;20228;-80
2023/03/25 08:51:56;;;;;;;3.90;1.20;;;;;;;;;;4919594;29;20174;-80
2023/03/25 08:54:22;;;;;;;7.28;2.30;;;;;;;;;;4919089;29;20186;-81
2023/03/25 08:56:48;;;;;;;11.02;2.60;;;;;;;;;;4919092;29;20193;-80
2023/03/25 08:59:14;;;;;;;9.23;1.95;;;;;;;;;;4918558;29;20186;-80
2023/03/25 09:01:42;;;;;;;8.65;1.83;;;;;;;;;;4919029;29;20189;-80
2023/03/25 09:04:08;;;;;;;10.52;2.70;;;;;;;;;;4918531;29;20700;-80
2023/03/25 09:06:35;;;;;;;7.35;1.92;;;;;;;;;;4919002;29;20183;-81
2023/03/25 09:09:02;;;;;;;10.57;3.25;;;;;;;;;;4919184;29;20221;-81
2023/03/25 09:11:29;;;;;;;7.78;2.00;;;;;;;;;;4918575;29;20694;-81
2023/03/25 09:13:55;;;;;;;11.70;1.63;;;;;;;;;;4918575;29;20213;-81
2023/03/25 09:16:21;;;;;;;8.00;1.80;;;;;;;;;;4918931;29;20183;-80
2023/03/25 09:18:47;;;;;;;6.47;1.85;;;;;;;;;;4922562;29;20261;-80
2023/03/25 09:21:12;;;;;;;20.43;2.53;;;;;;;;;;4922340;29;20178;-81
2023/03/25 09:23:38;;;;;;;4.10;1.70;;;;;;;;;;4923033;29;20499;-81
2023/03/25 09:26:05;;;;;;;9.20;1.50;;;;;;;;;;4922289;29;20815;-82
2023/03/25 09:28:31;;;;;;;4.47;1.50;;;;;;;;;;4922179;29;20468;-82
2023/03/25 09:30:57;;;;;;;5.05;3.05;;;;;;;;;;4922705;29;20273;-81
2023/03/25 09:33:23;;;;;;;14.17;1.60;;;;;;;;;;4922507;29;20210;-81
2023/03/25 09:35:49;;;;;;;7.22;1.90;;;;;;;;;;4922775;29;20850;-81
2023/03/25 09:38:16;;;;;;;9.52;1.65;;;;;;;;;;4921779;29;20285;-81
2023/03/25 09:40:43;;;;;;;5.70;1.80;;;;;;;;;;4922576;29;20202;-81
2023/03/25 09:43:22;;;;;;;5.18;1.48;;;;;;;;;;4921943;29;20186;-82
2023/03/25 09:45:48;;;;;;;7.80;1.45;;;;;;;;;;4922535;29;20182;-80
2023/03/25 09:48:26;;;;;;;10.10;2.33;;;;;;;;;;4921547;29;20281;-81
2023/03/25 09:50:52;;;;;;;18.70;2.65;;;;;;;;;;4921809;29;20516;-81
2023/03/25 09:53:37;;;;;;;6.73;1.50;;;;;;;;;;4922436;29;20186;-82
2023/03/25 09:56:05;;;;;;;9.00;1.85;;;;;;;;;;4922344;29;20742;-81
2023/03/25 09:58:44;;;;;;;4.55;1.48;;;;;;;;;;4921978;29;20178;-81
2023/03/25 10:01:25;;;;;;;10.68;2.03;;;;;;;;;;4921394;29;20178;-81
2023/03/25 10:03:57;;;;;;;9.27;2.17;;;;;;;;;;4921690;29;20237;-81
2023/03/25 10:06:26;;;;;;;8.15;1.80;;;;;;;;;;4921637;29;20654;-82
2023/03/25 10:08:58;;;;;;;11.90;1.90;;;;;;;;;;4921531;29;20709;-81
2023/03/25 10:11:30;;;;;;;10.90;1.60;;;;;;;;;;4921062;29;20225;-81
2023/03/25 10:14:05;;;;;;;10.85;2.33;;;;;;;;;;4921674;29;20178;-81
2023/03/25 10:16:31;;;;;;;9.90;2.40;;;;;;;;;;4921513;29;20563;-81
2023/03/25 10:19:03;;;;;;;11.20;1.60;;;;;;;;;;4922282;29;20237;-81
2023/03/25 10:21:32;;;;;;;6.18;1.83;;;;;;;;;;4921294;29;20430;-81
2023/03/25 10:24:11;;;;;;;14.75;2.10;;;;;;;;;;4918714;29;20235;-81
2023/03/25 10:26:48;;;;;;;13.40;2.40;;;;;;;;;;4899824;29;20721;-81
2023/03/25 10:29:19;;;;;;;8.90;2.53;;;;;;;;;;4920404;29;20462;-81
2023/03/25 10:31:57;;;;;;;5.73;1.20;;;;;;;;;;4921946;29;20410;-82
2023/03/25 10:34:29;;;;;;;3.43;1.23;;;;;;;;;;4921501;29;20413;-81
2023/03/25 10:36:57;;;;;;;8.83;2.20;;;;;;;;;;4921882;29;20430;-81
2023/03/25 10:39:24;;;;;;;7.57;1.60;;;;;;;;;;4921529;29;20470;-81
2023/03/25 10:41:59;;;;;;;8.03;2.00;;;;;;;;;;4921897;29;20835;-81
2023/03/25 10:44:26;;;;;;;10.43;1.80;;;;;;;;;;4921723;29;20493;-80
2023/03/25 10:46:58;;;;;;;11.97;2.50;;;;;;;;;;4921482;29;20411;-81
2023/03/25 10:49:26;;;;;;;4.80;2.00;;;;;;;;;;4920734;29;20496;-80
2023/03/25 10:51:53;;;;;;;6.67;1.70;;;;;;;;;;4921407;29;20803;-80
2023/03/25 10:54:21;;;;;;;17.33;1.93;;;;;;;;;;4920085;29;20416;-80
2023/03/25 10:56:51;;;;;;;15.65;2.00;;;;;;;;;;4920827;29;20462;-81
2023/03/25 10:59:23;;;;;;;3.30;1.50;;;;;;;;;;4921219;29;20202;-83
2023/03/25 11:01:50;;;;;;;6.55;1.88;;;;;;;;;;4921357;29;20405;-80
2023/03/25 11:04:17;;;;;;;3.93;1.20;;;;;;;;;;4920989;29;20237;-80
2023/03/25 11:06:45;;;;;;;9.03;1.50;;;;;;;;;;4925116;29;20426;-80
2023/03/25 11:09:18;;;;;;;8.43;1.73;;;;;;;;;;4904362;29;20626;-82
2023/03/25 11:11:44;;;;;;;8.30;1.40;;;;;;;;;;4921044;29;20411;-80
2023/03/25 11:14:11;;;;;;;6.60;1.77;;;;;;;;;;4920889;29;20509;-83
2023/03/25 11:16:46;;;;;;;5.40;1.80;;;;;;;;;;4920713;29;20432;-80
2023/03/25 11:19:18;;;;;;;11.03;2.23;;;;;;;;;;4903471;29;20434;-81
2023/03/25 11:21:46;;;;;;;6.43;1.57;;;;;;;;;;4920668;29;20416;-80
2023/03/25 11:24:14;;;;;;;7.72;1.77;;;;;;;;;;4920926;29;20433;-82
2023/03/25 11:26:40;;;;;;;8.43;1.67;;;;;;;;;;4921929;29;20182;-80
2023/03/25 11:29:07;;;;;;;10.37;2.10;;;;;;;;;;4920638;29;20543;-80
2023/03/25 11:31:36;;;;;;;12.30;1.98;;;;;;;;;;4920279;29;20465;-81
2023/03/25 11:34:05;;;;;;;10.85;1.77;;;;;;;;;;4921013;29;20178;-80
2023/03/25 11:36:39;;;;;;;12.98;2.03;;;;;;;;;;4920750;29;20189;-80
2023/03/25 11:39:17;;;;;;;4.72;1.33;;;;;;;;;;4921320;29;20174;-80
2023/03/25 11:41:43;;;;;;;12.10;1.80;;;;;;;;;;4920381;29;20176;-80
2023/03/25 11:44:18;;;;;;;15.23;2.30;;;;;;;;;;4920711;29;20779;-80
2023/03/25 11:46:44;;;;;;;10.33;2.70;;;;;;;;;;4920468;29;20410;-79
2023/03/25 11:51:46;;;;;;;10.27;1.83;;;;;;;;;;4933806;23;20498;-80
2023/03/25 11:54:14;;;;;;;20.73;2.30;;;;;;;;;;4901241;29;20411;-82
2023/03/25 11:56:41;;;;;;;16.40;2.00;;;;;;;;;;4901537;29;20896;-80
2023/03/25 11:59:22;;;;;;;10.03;1.83;;;;;;;;;;4901617;29;20811;-80
2023/03/25 12:01:49;;;;;;;19.60;2.37;;;;;;;;;;4901407;29;20430;-79
2023/03/25 12:04:22;;;;;;;35.33;3.53;;;;;;;;;;4901078;29;20478;-81
2023/03/25 12:06:52;;;;;;;19.97;2.93;;;;;;;;;;4901226;29;20888;-79
2023/03/25 12:09:18;;;;;;;24.87;2.53;;;;;;;;;;4901214;29;20467;-80
2023/03/25 12:11:53;;;;;;;32.77;3.60;;;;;;;;;;4900966;29;20512;-80
2023/03/25 12:14:22;;;;;;;15.90;2.70;;;;;;;;;;4900496;29;20403;-81
2023/03/25 12:16:53;;;;;;;11.40;3.20;;;;;;;;;;4900716;29;20939;-79
2023/03/25 12:19:24;;;;;;;10.03;2.10;;;;;;;;;;4901020;29;20407;-80
2023/03/25 12:21:53;;;;;;;25.57;2.97;;;;;;;;;;4901416;29;20418;-82
2023/03/25 12:24:38;;;;;;;23.60;3.60;;;;;;;;;;4900734;29;20439;-81
2023/03/25 12:27:23;;;;;;;19.10;2.97;;;;;;;;;;4900838;29;20381;-83
2023/03/25 12:30:00;;;;;;;14.47;2.10;;;;;;;;;;4900352;29;20532;-83
2023/03/25 12:32:38;;;;;;;30.00;2.73;;;;;;;;;;4900820;29;20397;-83
2023/03/25 12:35:04;;;;;;;15.20;2.87;;;;;;;;;;4900620;29;20761;-83
2023/03/25 12:37:33;;;;;;;11.80;1.90;;;;;;;;;;4900086;29;20417;-82
2023/03/25 12:39:59;;;;;;;16.73;2.77;;;;;;;;;;4900998;29;20978;-82
2023/03/25 12:42:48;;;;;;;32.23;4.00;;;;;;;;;;4900628;29;20426;-82
2023/03/25 12:45:28;;;;;;;25.50;2.57;;;;;;;;;;4865996;29;20415;-82
2023/03/25 12:48:06;;;;;;;14.20;2.70;;;;;;;;;;4900659;29;20422;-82
2023/03/25 12:50:38;;;;;;;10.93;1.33;;;;;;;;;;4900657;29;20501;-80
2023/03/25 12:53:30;;;;;;;11.40;2.13;;;;;;;;;;4907367;29;20418;-81
2023/03/25 12:56:07;;;;;;;3.40;1.20;;;;;;;;;;4923518;29;20510;-80
2023/03/25 12:58:33;;;;;;;6.63;1.83;;;;;;;;;;4923519;29;20909;-80
2023/03/25 13:01:18;;;;;;;7.60;1.80;;;;;;;;;;4923364;29;20410;-80
2023/03/25 13:03:52;;;;;;;5.53;1.40;;;;;;;;;;4922608;29;20398;-81
2023/03/25 13:06:40;;;;;;;3.80;1.50;;;;;;;;;;4903757;29;20928;-80
2023/03/25 13:09:21;;;;;;;3.80;2.00;;;;;;;;;;4909053;29;20905;-80
2023/03/25 13:11:49;;;;;;;7.30;1.60;;;;;;;;;;4911684;29;20415;-80
2023/03/25 13:14:20;;;;;;;6.83;1.23;;;;;;;;;;4914254;29;20826;-79
2023/03/25 13:16:47;;;;;;;17.07;2.97;;;;;;;;;;4907269;29;20471;-81
2023/03/25 13:19:15;;;;;;;8.93;1.90;;;;;;;;;;4904217;29;20478;-82
2023/03/25 13:21:49;;;;;;;6.40;1.73;;;;;;;;;;4901389;29;20439;-82
2023/03/25 13:24:18;;;;;;;8.60;1.77;;;;;;;;;;4895679;29;20421;-83
2023/03/25 13:26:44;;;;;;;8.80;2.00;;;;;;;;;;4903204;29;20419;-82
2023/03/25 13:29:16;;;;;;;19.97;3.20;;;;;;;;;;4903736;29;20492;-83
2023/03/25 13:31:43;;;;;;;9.43;2.00;;;;;;;;;;4903878;29;20395;-81
2023/03/25 13:34:09;;;;;;;12.00;1.90;;;;;;;;;;4903965;29;20562;-82
2023/03/25 13:36:37;;;;;;;4.33;1.10;;;;;;;;;;4902602;29;20887;-83
2023/03/25 13:39:12;;;;;;;6.88;1.48;;;;;;;;;;4902489;29;20407;-84
2023/03/25 13:41:59;;;;;;;7.88;1.65;;;;;;;;;;4884038;29;20175;-83
2023/03/25 13:44:38;;;;;;;4.65;1.45;;;;;;;;;;4883895;29;20199;-88
2023/03/25 13:47:10;;;;;;;5.18;1.67;;;;;;;;;;4867283;29;20198;-88
2023/03/25 13:49:55;;;;;;;7.47;1.58;;;;;;;;;;4883486;29;20270;-85
2023/03/25 13:52:21;;;;;;;6.65;1.95;;;;;;;;;;4866958;29;20187;-87
2023/03/25 13:54:51;;;;;;;5.97;1.40;;;;;;;;;;4903330;29;20175;-85
2023/03/25 13:57:27;;;;;;;10.27;1.45;;;;;;;;;;4902675;29;20179;-86
2023/03/25 14:00:13;;;;;;;12.10;2.28;;;;;;;;;;4902461;29;20234;-88
2023/03/25 14:02:39;;;;;;;6.53;1.52;;;;;;;;;;4902699;29;20636;-86
2023/03/25 14:05:09;;;;;;;6.50;1.90;;;;;;;;;;4902287;29;20194;-87
2023/03/25 14:07:59;;;;;;;8.07;1.98;;;;;;;;;;4885981;29;20439;-86
2023/03/25 14:10:34;;;;;;;8.38;1.90;;;;;;;;;;4902068;29;20632;-86
2023/03/25 14:13:05;;;;;;;9.13;2.28;;;;;;;;;;4902830;29;20175;-84
2023/03/25 14:15:40;;;;;;;4.78;1.20;;;;;;;;;;4903173;29;20166;-84
2023/03/25 14:18:12;;;;;;;2.15;0.90;;;;;;;;;;4884204;29;20182;-83
2023/03/25 14:20:39;;;;;;;5.60;1.98;;;;;;;;;;4883614;29;20267;-83
2023/03/25 14:23:06;;;;;;;4.90;1.40;;;;;;;;;;4884170;29;20184;-83
2023/03/25 14:25:51;;;;;;;6.57;1.40;;;;;;;;;;4883571;29;20180;-83
2023/03/25 14:28:38;;;;;;;4.68;1.52;;;;;;;;;;4875595;29;20231;-82
2023/03/25 14:31:07;;;;;;;3.00;1.25;;;;;;;;;;4919823;29;20217;-82
2023/03/25 14:33:51;;;;;;;4.72;1.35;;;;;;;;;;4903584;29;20590;-82
2023/03/25 14:36:17;;;;;;;8.32;1.90;;;;;;;;;;4902989;29;20178;-81
2023/03/25 14:38:51;;;;;;;8.23;1.37;;;;;;;;;;4902164;29;20190;-81
2023/03/25 14:41:17;;;;;;;5.60;1.35;;;;;;;;;;4902114;29;20408;-82
2023/03/25 14:43:45;;;;;;;9.23;2.10;;;;;;;;;;4902216;29;20203;-81
2023/03/25 14:46:17;;;;;;;2.42;1.80;;;;;;;;;;4902681;29;20258;-81
2023/03/25 14:48:53;;;;;;;3.53;1.30;;;;;;;;;;4918350;29;20203;-80
2023/03/25 14:51:19;;;;;;;7.82;2.08;;;;;;;;;;4902413;29;20230;-80
2023/03/25 14:53:52;;;;;;;3.40;1.30;;;;;;;;;;4901752;29;20178;-80
2023/03/25 14:56:21;;;;;;;8.50;1.98;;;;;;;;;;4902286;29;20471;-80